createdAt,value
2023-02-21T00:00:05.241Z,81.07
2023-02-21T00:03:22.991Z,80.82
2023-02-21T00:06:14.180Z,80.65
2023-02-21T00:09:05.000Z,80.55
2023-02-21T00:11:59.491Z,80.29
2023-02-21T00:14:50.420Z,80.14
2023-02-21T00:17:41.680Z,80.05
2023-02-21T00:20:32.521Z,79.67
2023-02-21T00:23:24.001Z,78.88
2023-02-21T00:26:14.857Z,78.88
2023-02-21T00:29:06.472Z,78.59
2023-02-21T00:31:59.014Z,78.48
2023-02-21T00:34:50.566Z,78.20
2023-02-21T00:37:42.246Z,78.00
2023-02-21T00:40:35.267Z,78.05
2023-02-21T00:43:27.198Z,77.78
2023-02-21T00:46:18.692Z,77.72
2023-02-21T00:49:09.570Z,77.49
2023-02-21T00:52:00.098Z,77.43
2023-02-21T00:54:51.113Z,77.23
2023-02-21T00:57:42.713Z,77.04
2023-02-21T01:00:38.966Z,76.72
2023-02-21T01:03:31.114Z,76.44
2023-02-21T01:06:27.523Z,76.17
2023-02-21T01:09:18.576Z,75.98
2023-02-21T01:12:10.762Z,76.02
2023-02-21T01:15:02.642Z,75.71
2023-02-21T01:17:54.084Z,75.16
2023-02-21T01:20:45.673Z,75.21
2023-02-21T01:23:39.529Z,75.19
2023-02-21T01:26:31.352Z,75.03
2023-02-21T01:29:23.939Z,74.83
2023-02-21T01:32:17.627Z,74.93
2023-02-21T01:35:12.770Z,74.69
2023-02-21T01:38:03.673Z,74.58
2023-02-21T01:40:58.785Z,74.40
2023-02-21T01:43:50.003Z,74.60
2023-02-21T01:46:42.149Z,74.33
2023-02-21T01:49:37.609Z,74.34
2023-02-21T01:52:28.854Z,74.12
2023-02-21T01:55:19.968Z,73.84
2023-02-21T01:58:13.617Z,73.75
2023-02-21T02:01:06.594Z,73.62
2023-02-21T02:03:59.346Z,73.54
2023-02-21T02:06:51.021Z,73.47
2023-02-21T02:09:42.799Z,73.58
2023-02-21T02:12:38.524Z,73.50
2023-02-21T02:15:26.550Z,73.62
2023-02-21T02:18:27.856Z,73.63
2023-02-21T02:21:35.478Z,73.47
2023-02-21T02:24:42.066Z,73.06
2023-02-21T02:27:54.384Z,72.77
2023-02-21T02:30:59.045Z,72.66
2023-02-21T02:34:07.246Z,72.37
2023-02-21T02:36:44.643Z,71.95
2023-02-21T02:39:26.019Z,71.75
2023-02-21T02:42:11.971Z,71.42
2023-02-21T02:44:52.330Z,71.16
2023-02-21T02:47:31.243Z,71.04
2023-02-21T02:50:08.097Z,70.64
2023-02-21T02:52:51.130Z,70.80
2023-02-21T02:55:38.678Z,70.84
2023-02-21T02:58:13.533Z,70.98
2023-02-21T03:00:54.222Z,71.16
2023-02-21T03:03:53.576Z,71.22
2023-02-21T03:06:35.815Z,71.21
2023-02-21T03:09:16.092Z,70.99
2023-02-21T03:12:00.188Z,70.67
2023-02-21T03:14:40.482Z,70.42
2023-02-21T03:17:19.151Z,70.50
2023-02-21T03:19:57.997Z,70.11
2023-02-21T03:22:32.915Z,69.50
2023-02-21T03:25:08.620Z,69.76
2023-02-21T03:27:44.614Z,69.86
2023-02-21T03:30:30.017Z,69.83
2023-02-21T03:33:04.409Z,69.30
2023-02-21T03:35:38.385Z,69.24
2023-02-21T03:38:13.676Z,69.20
2023-02-21T03:40:47.621Z,68.67
2023-02-21T03:43:21.385Z,68.43
2023-02-21T03:45:58.340Z,67.82
2023-02-21T03:48:34.623Z,67.81
2023-02-21T03:51:15.206Z,68.04
2023-02-21T03:53:49.802Z,67.80
2023-02-21T03:56:33.320Z,67.64
2023-02-21T03:59:24.807Z,66.48
2023-02-21T04:01:59.369Z,66.61
2023-02-21T04:04:35.962Z,66.96
2023-02-21T04:07:20.364Z,66.92
2023-02-21T04:10:12.495Z,66.47
2023-02-21T04:12:50.903Z,66.48
2023-02-21T04:15:25.014Z,66.50
2023-02-21T04:17:58.614Z,66.69
2023-02-21T04:20:32.872Z,66.52
2023-02-21T04:23:25.429Z,66.39
2023-02-21T04:25:59.916Z,66.21
2023-02-21T04:28:41.522Z,65.80
2023-02-21T04:31:16.165Z,65.43
2023-02-21T04:33:56.937Z,65.57
2023-02-21T04:36:37.708Z,65.64
2023-02-21T04:39:12.056Z,65.78
2023-02-21T04:42:03.131Z,65.87
2023-02-21T04:44:37.810Z,65.45
2023-02-21T04:47:11.370Z,65.52
2023-02-21T04:49:45.163Z,65.13
2023-02-21T04:52:20.573Z,65.25
2023-02-21T04:54:54.409Z,64.80
2023-02-21T04:57:31.321Z,65.19
2023-02-21T05:00:08.766Z,65.27
2023-02-21T05:02:46.527Z,65.21
2023-02-21T05:05:20.647Z,65.12
2023-02-21T05:07:54.448Z,64.96
2023-02-21T05:10:43.562Z,65.35
2023-02-21T05:13:19.129Z,65.30
2023-02-21T05:15:52.955Z,65.25
2023-02-21T05:18:34.997Z,64.82
2023-02-21T05:21:09.427Z,64.77
2023-02-21T05:23:56.390Z,64.43
2023-02-21T05:26:35.604Z,64.38
2023-02-21T05:29:09.036Z,64.35
2023-02-21T05:31:42.651Z,64.38
2023-02-21T05:34:17.847Z,63.80
2023-02-21T05:36:51.284Z,63.86
2023-02-21T05:39:24.952Z,64.17
2023-02-21T05:41:58.809Z,64.14
2023-02-21T05:44:32.947Z,63.95
2023-02-21T05:47:07.537Z,64.13
2023-02-21T05:49:41.503Z,64.26
2023-02-21T05:52:17.182Z,64.66
2023-02-21T05:54:51.222Z,64.53
2023-02-21T05:57:25.148Z,64.30
2023-02-21T05:59:58.629Z,64.36
2023-02-21T06:02:32.526Z,64.45
2023-02-21T06:05:07.412Z,64.36
2023-02-21T06:07:40.980Z,63.84
2023-02-21T06:10:14.787Z,63.83
2023-02-21T06:12:49.205Z,64.01
2023-02-21T06:15:22.841Z,63.91
2023-02-21T06:17:57.086Z,63.64
2023-02-21T06:20:31.201Z,63.88
2023-02-21T06:23:07.610Z,63.87
2023-02-21T06:25:41.290Z,63.44
2023-02-21T06:28:16.274Z,63.29
2023-02-21T06:30:50.418Z,63.47
2023-02-21T06:33:24.416Z,63.19
2023-02-21T06:35:58.376Z,63.20
2023-02-21T06:38:32.198Z,63.31
2023-02-21T06:41:13.152Z,63.22
2023-02-21T06:43:47.148Z,63.02
2023-02-21T06:46:21.894Z,63.15
2023-02-21T06:48:56.065Z,63.15
2023-02-21T06:51:30.974Z,63.22
2023-02-21T06:54:06.030Z,63.36
2023-02-21T06:56:39.860Z,63.32
2023-02-21T06:59:13.557Z,63.24
2023-02-21T07:01:47.228Z,63.19
2023-02-21T07:04:21.454Z,63.20
2023-02-21T07:06:55.967Z,63.38
2023-02-21T07:09:30.495Z,63.70
2023-02-21T07:12:05.028Z,63.84
2023-02-21T07:14:38.749Z,63.89
2023-02-21T07:17:12.271Z,63.88
2023-02-21T07:19:45.782Z,63.82
2023-02-21T07:22:26.445Z,63.93
2023-02-21T07:25:00.690Z,63.77
2023-02-21T07:27:34.490Z,63.68
2023-02-21T07:30:09.975Z,63.65
2023-02-21T07:32:43.798Z,63.77
2023-02-21T07:35:17.680Z,63.64
2023-02-21T07:37:51.696Z,63.67
2023-02-21T07:40:25.462Z,64.05
2023-02-21T07:42:59.804Z,64.07
2023-02-21T07:45:33.715Z,63.88
2023-02-21T07:48:07.681Z,63.84
2023-02-21T07:50:41.198Z,63.71
2023-02-21T07:53:16.437Z,63.65
2023-02-21T07:55:50.711Z,63.58
2023-02-21T07:58:24.067Z,63.49
2023-02-21T08:00:57.632Z,63.72
2023-02-21T08:03:31.485Z,63.68
2023-02-21T08:06:05.627Z,63.80
2023-02-21T08:08:39.414Z,63.85
2023-02-21T08:11:13.063Z,63.84
2023-02-21T08:13:46.983Z,63.76
2023-02-21T08:16:21.058Z,63.75
2023-02-21T08:18:55.095Z,63.74
2023-02-21T08:21:28.847Z,63.95
2023-02-21T08:24:02.757Z,64.07
2023-02-21T08:26:36.762Z,63.96
2023-02-21T08:29:10.350Z,64.01
2023-02-21T08:31:45.099Z,64.10
2023-02-21T08:34:18.910Z,64.38
2023-02-21T08:36:52.780Z,64.39
2023-02-21T08:39:30.814Z,64.17
2023-02-21T08:42:04.609Z,64.10
2023-02-21T08:44:38.198Z,64.26
2023-02-21T08:47:12.221Z,64.45
2023-02-21T08:49:47.890Z,64.51
2023-02-21T08:52:22.895Z,64.63
2023-02-21T08:54:56.598Z,64.44
2023-02-21T08:57:30.152Z,64.49
2023-02-21T09:00:04.851Z,64.79
2023-02-21T09:02:40.545Z,64.85
2023-02-21T09:05:16.361Z,64.93
2023-02-21T09:07:51.679Z,64.97
2023-02-21T09:10:25.531Z,65.16
2023-02-21T09:12:59.221Z,65.29
2023-02-21T09:15:33.358Z,65.14
2023-02-21T09:18:07.550Z,65.28
2023-02-21T09:20:42.749Z,65.55
2023-02-21T09:23:18.542Z,65.62
2023-02-21T09:25:53.199Z,65.62
2023-02-21T09:28:27.072Z,65.52
2023-02-21T09:31:00.848Z,65.67
2023-02-21T09:33:34.605Z,65.64
2023-02-21T09:36:09.326Z,65.49
2023-02-21T09:38:43.644Z,65.53
2023-02-21T09:41:18.354Z,65.27
2023-02-21T09:43:55.268Z,65.18
2023-02-21T09:46:37.386Z,64.92
2023-02-21T09:49:19.479Z,64.79
2023-02-21T09:51:56.550Z,64.49
2023-02-21T09:54:35.550Z,64.85
2023-02-21T09:57:15.964Z,65.00
2023-02-21T09:59:49.627Z,64.88
2023-02-21T10:02:40.588Z,64.63
2023-02-21T10:05:24.473Z,64.69
2023-02-21T10:08:07.225Z,64.71
2023-02-21T10:10:46.501Z,64.41
2023-02-21T10:13:37.337Z,64.47
2023-02-21T10:16:17.945Z,64.12
2023-02-21T10:19:03.227Z,63.89
2023-02-21T10:21:42.419Z,63.96
2023-02-21T10:24:18.499Z,63.81
2023-02-21T10:27:00.110Z,63.61
2023-02-21T10:29:45.839Z,63.39
2023-02-21T10:32:20.022Z,62.93
2023-02-21T10:34:55.094Z,62.65
2023-02-21T10:37:39.553Z,62.23
2023-02-21T10:40:26.552Z,62.20
2023-02-21T10:43:07.866Z,61.96
2023-02-21T10:45:47.242Z,62.28
2023-02-21T10:48:26.955Z,62.39
2023-02-21T10:51:12.453Z,61.54
2023-02-21T10:53:47.591Z,60.96
2023-02-21T10:56:31.311Z,60.89
2023-02-21T10:59:08.372Z,60.73
2023-02-21T11:01:46.753Z,61.02
2023-02-21T11:04:36.004Z,59.62
2023-02-21T11:07:12.617Z,59.74
2023-02-21T11:09:47.649Z,59.58
2023-02-21T11:12:26.570Z,59.46
2023-02-21T11:15:19.920Z,59.13
2023-02-21T11:18:07.131Z,59.29
2023-02-21T11:20:40.790Z,59.30
2023-02-21T11:23:27.330Z,59.44
2023-02-21T11:26:11.910Z,60.07
2023-02-21T11:28:46.936Z,59.88
2023-02-21T11:31:29.375Z,59.31
2023-02-21T11:34:07.530Z,58.71
2023-02-21T11:36:43.576Z,58.13
2023-02-21T11:39:21.944Z,58.78
2023-02-21T11:41:57.699Z,58.74
2023-02-21T11:44:35.587Z,58.50
2023-02-21T11:47:18.941Z,58.27
2023-02-21T11:50:10.003Z,58.39
2023-02-21T11:52:48.703Z,58.39
2023-02-21T11:55:26.337Z,58.47
2023-02-21T11:58:20.013Z,58.67
2023-02-21T12:01:03.926Z,57.90
2023-02-21T12:04:04.692Z,57.31
2023-02-21T12:06:44.769Z,56.89
2023-02-21T12:09:23.649Z,56.80
2023-02-21T12:12:15.380Z,57.20
2023-02-21T12:15:03.055Z,57.98
2023-02-21T12:17:54.267Z,57.49
2023-02-21T12:20:43.596Z,57.58
2023-02-21T12:23:26.653Z,57.34
2023-02-21T12:26:21.377Z,57.90
2023-02-21T12:29:11.260Z,57.92
2023-02-21T12:32:06.069Z,58.76
2023-02-21T12:34:56.509Z,57.36
2023-02-21T12:37:39.820Z,56.49
2023-02-21T12:40:25.422Z,55.60
2023-02-21T12:43:13.436Z,54.47
2023-02-21T12:45:58.728Z,53.84
2023-02-21T12:48:37.430Z,53.85
2023-02-21T12:51:16.475Z,54.51
2023-02-21T12:53:57.109Z,55.18
2023-02-21T12:56:34.191Z,54.82
2023-02-21T12:59:16.413Z,55.05
2023-02-21T13:01:54.371Z,55.01
2023-02-21T13:04:50.030Z,54.91
2023-02-21T13:07:29.008Z,55.30
2023-02-21T13:10:08.400Z,56.01
2023-02-21T13:12:46.907Z,56.56
2023-02-21T13:15:24.360Z,56.91
2023-02-21T13:18:10.562Z,57.32
2023-02-21T13:20:48.273Z,58.12
2023-02-21T13:23:58.759Z,58.92
2023-02-21T13:26:59.666Z,59.56
2023-02-21T13:29:37.437Z,60.38
2023-02-21T13:32:17.476Z,60.52
2023-02-21T13:34:51.046Z,60.31
2023-02-21T13:37:27.949Z,60.18
2023-02-21T13:40:08.184Z,60.82
2023-02-21T13:42:42.396Z,60.26
2023-02-21T13:45:24.586Z,60.23
2023-02-21T13:48:33.155Z,60.43
2023-02-21T13:51:07.297Z,61.32
2023-02-21T13:54:11.486Z,60.74
2023-02-21T13:56:49.704Z,59.67
2023-02-21T13:59:37.699Z,59.59
2023-02-21T14:02:33.093Z,59.67
2023-02-21T14:05:09.202Z,59.60
2023-02-21T14:07:58.557Z,59.45
2023-02-21T14:10:43.334Z,58.93
2023-02-21T14:13:32.962Z,58.93
2023-02-21T14:16:23.240Z,58.65
2023-02-21T14:19:00.842Z,58.92
2023-02-21T14:21:42.577Z,59.34
2023-02-21T14:24:18.994Z,58.93
2023-02-21T14:26:58.409Z,59.00
2023-02-21T14:29:38.389Z,59.09
2023-02-21T14:32:30.204Z,59.15
2023-02-21T14:35:15.102Z,59.17
2023-02-21T14:37:58.863Z,59.25
2023-02-21T14:40:42.952Z,59.18
2023-02-21T14:43:33.626Z,59.35
2023-02-21T14:46:29.028Z,59.50
2023-02-21T14:49:26.255Z,59.74
2023-02-21T14:52:27.008Z,59.69
2023-02-21T14:55:36.184Z,59.85
2023-02-21T14:58:37.962Z,60.06
2023-02-21T15:01:28.542Z,60.25
2023-02-21T15:04:11.100Z,60.16
2023-02-21T15:06:55.443Z,60.23
2023-02-21T15:09:29.145Z,60.38
2023-02-21T15:12:03.960Z,60.48
2023-02-21T15:14:42.108Z,60.24
2023-02-21T15:17:19.656Z,60.27
2023-02-21T15:20:07.387Z,60.39
2023-02-21T15:22:41.489Z,60.45
2023-02-21T15:25:23.646Z,60.51
2023-02-21T15:28:03.654Z,60.42
2023-02-21T15:30:43.289Z,60.50
2023-02-21T15:33:21.078Z,60.67
2023-02-21T15:36:01.256Z,60.57
2023-02-21T15:38:41.232Z,60.82
2023-02-21T15:41:22.268Z,60.87
2023-02-21T15:44:02.093Z,60.84
2023-02-21T15:46:42.755Z,60.79
2023-02-21T15:49:21.397Z,60.79
2023-02-21T15:51:55.705Z,60.93
2023-02-21T15:54:34.935Z,60.98
2023-02-21T15:57:25.354Z,60.97
2023-02-21T16:00:21.708Z,60.98
2023-02-21T16:03:15.860Z,61.12
2023-02-21T16:05:50.426Z,61.14
2023-02-21T16:08:25.049Z,61.03
2023-02-21T16:11:06.083Z,60.90
2023-02-21T16:13:43.044Z,60.85
2023-02-21T16:16:18.869Z,61.08
2023-02-21T16:19:00.616Z,61.09
2023-02-21T16:21:35.891Z,61.21
2023-02-21T16:24:32.638Z,61.32
2023-02-21T16:27:14.445Z,61.67
2023-02-21T16:29:52.156Z,61.87
2023-02-21T16:32:25.885Z,62.03
2023-02-21T16:35:00.160Z,62.11
2023-02-21T16:37:34.725Z,62.35
2023-02-21T16:40:16.661Z,62.59
2023-02-21T16:42:53.157Z,62.66
2023-02-21T16:45:28.846Z,62.69
2023-02-21T16:48:09.624Z,62.85
2023-02-21T16:50:47.196Z,62.87
2023-02-21T16:53:24.285Z,63.00
2023-02-21T16:55:58.891Z,63.09
2023-02-21T16:58:53.400Z,63.11
2023-02-21T17:01:30.987Z,63.25
2023-02-21T17:04:07.729Z,63.32
2023-02-21T17:06:41.970Z,63.33
2023-02-21T17:09:22.623Z,63.35
2023-02-21T17:11:56.828Z,63.34
2023-02-21T17:14:31.640Z,63.50
2023-02-21T17:17:08.032Z,63.50
2023-02-21T17:19:42.423Z,63.46
2023-02-21T17:22:18.811Z,63.44
2023-02-21T17:24:56.945Z,63.62
2023-02-21T17:27:35.658Z,63.56
2023-02-21T17:30:14.332Z,63.44
2023-02-21T17:32:50.920Z,63.52
2023-02-21T17:35:29.309Z,63.71
2023-02-21T17:38:04.844Z,63.66
2023-02-21T17:40:41.813Z,63.77
2023-02-21T17:43:19.363Z,63.73
2023-02-21T17:45:57.501Z,63.69
2023-02-21T17:48:35.434Z,63.73
2023-02-21T17:51:11.235Z,63.82
2023-02-21T17:53:47.256Z,63.85
2023-02-21T17:56:27.858Z,63.88
2023-02-21T17:59:05.499Z,64.00
2023-02-21T18:01:47.399Z,63.92
2023-02-21T18:04:27.996Z,63.96
2023-02-21T18:07:06.310Z,64.12
2023-02-21T18:09:42.310Z,64.15
2023-02-21T18:12:20.865Z,64.19
2023-02-21T18:14:57.439Z,64.20
2023-02-21T18:17:34.794Z,64.14
2023-02-21T18:20:13.069Z,64.15
2023-02-21T18:22:49.974Z,64.15
2023-02-21T18:25:27.833Z,64.12
2023-02-21T18:28:03.731Z,64.18
2023-02-21T18:30:40.050Z,64.21
2023-02-21T18:33:18.552Z,64.25
2023-02-21T18:35:56.265Z,64.24
2023-02-21T18:38:31.385Z,64.30
2023-02-21T18:41:11.942Z,64.44
2023-02-21T18:43:49.774Z,64.58
2023-02-21T18:46:30.193Z,64.49
2023-02-21T18:49:09.223Z,64.73
2023-02-21T18:51:47.281Z,64.81
2023-02-21T18:54:24.800Z,65.00
2023-02-21T18:57:04.045Z,65.03
2023-02-21T18:59:43.983Z,65.11
2023-02-21T19:02:22.365Z,65.14
2023-02-21T19:04:58.884Z,65.23
2023-02-21T19:07:37.411Z,65.24
2023-02-21T19:10:17.924Z,65.36
2023-02-21T19:12:54.205Z,65.45
2023-02-21T19:15:31.094Z,65.55
2023-02-21T19:18:10.018Z,65.70
2023-02-21T19:20:45.635Z,65.92
2023-02-21T19:23:22.800Z,65.91
2023-02-21T19:25:59.733Z,66.11
2023-02-21T19:28:38.449Z,66.23
2023-02-21T19:31:28.719Z,66.37
2023-02-21T19:34:07.759Z,66.41
2023-02-21T19:36:44.626Z,66.55
2023-02-21T19:39:21.996Z,66.54
2023-02-21T19:42:00.773Z,66.59
2023-02-21T19:44:43.353Z,66.68
2023-02-21T19:47:24.836Z,66.71
2023-02-21T19:50:04.306Z,66.70
2023-02-21T19:52:44.435Z,66.75
2023-02-21T19:55:23.826Z,66.84
2023-02-21T19:58:01.514Z,66.78
2023-02-21T20:00:39.656Z,66.79
2023-02-21T20:03:15.243Z,66.89
2023-02-21T20:06:00.189Z,66.97
2023-02-21T20:08:39.711Z,67.12
2023-02-21T20:11:25.669Z,67.38
2023-02-21T20:14:04.931Z,67.35
2023-02-21T20:16:48.492Z,67.30
2023-02-21T20:19:48.690Z,67.12
2023-02-21T20:22:32.467Z,66.98
2023-02-21T20:25:11.592Z,66.93
2023-02-21T20:27:55.308Z,66.88
2023-02-21T20:30:38.163Z,66.92
2023-02-21T20:33:16.711Z,66.84
2023-02-21T20:35:56.038Z,66.76
2023-02-21T20:38:34.144Z,66.68
2023-02-21T20:41:15.008Z,66.80
2023-02-21T20:43:52.714Z,66.92
2023-02-21T20:46:39.378Z,67.13
2023-02-21T20:49:23.592Z,67.32
2023-02-21T20:52:01.760Z,67.31
2023-02-21T20:54:39.370Z,67.43
2023-02-21T20:57:16.256Z,67.45
2023-02-21T20:59:52.569Z,67.52
2023-02-21T21:02:37.387Z,67.54
2023-02-21T21:05:19.671Z,67.36
2023-02-21T21:07:57.267Z,67.23
2023-02-21T21:10:33.985Z,67.30
2023-02-21T21:13:11.267Z,67.13
2023-02-21T21:15:49.123Z,67.13
2023-02-21T21:18:25.297Z,67.15
2023-02-21T21:21:05.904Z,67.21
2023-02-21T21:23:41.637Z,67.16
2023-02-21T21:26:21.821Z,67.17
2023-02-21T21:29:04.393Z,67.16
2023-02-21T21:31:41.040Z,67.09
2023-02-21T21:34:21.435Z,67.06
2023-02-21T21:36:59.514Z,66.91
2023-02-21T21:39:36.392Z,66.99
2023-02-21T21:42:18.241Z,66.97
2023-02-21T21:44:55.996Z,66.96
2023-02-21T21:47:38.905Z,67.08
2023-02-21T21:50:18.040Z,67.25
2023-02-21T21:52:58.906Z,67.13
2023-02-21T21:55:35.822Z,67.23
2023-02-21T21:58:15.429Z,67.21
2023-02-21T22:00:49.612Z,67.29
2023-02-21T22:03:24.423Z,67.34
2023-02-21T22:06:01.005Z,67.45
2023-02-21T22:08:34.933Z,67.47
2023-02-21T22:11:10.168Z,67.60
2023-02-21T22:13:43.814Z,67.81
2023-02-21T22:16:18.452Z,67.79
2023-02-21T22:18:52.915Z,67.90
2023-02-21T22:21:26.673Z,67.88
2023-02-21T22:24:00.327Z,67.99
2023-02-21T22:26:34.806Z,67.96
2023-02-21T22:29:08.317Z,67.97
2023-02-21T22:31:42.240Z,68.16
2023-02-21T22:34:23.532Z,68.13
2023-02-21T22:36:59.206Z,68.20
2023-02-21T22:39:33.538Z,68.27
2023-02-21T22:42:09.144Z,68.30
2023-02-21T22:44:43.679Z,68.43
2023-02-21T22:47:17.435Z,68.60
2023-02-21T22:49:51.123Z,68.51
2023-02-21T22:52:24.881Z,68.54
2023-02-21T22:54:59.038Z,68.45
2023-02-21T22:57:33.032Z,68.49
2023-02-21T23:00:19.373Z,68.46
2023-02-21T23:02:53.777Z,68.58
2023-02-21T23:05:27.751Z,68.51
2023-02-21T23:08:01.509Z,68.55
2023-02-21T23:10:40.787Z,68.63
2023-02-21T23:13:18.785Z,68.75
2023-02-21T23:15:55.616Z,68.70
2023-02-21T23:18:31.860Z,68.81
2023-02-21T23:21:10.118Z,68.70
2023-02-21T23:23:42.893Z,68.53
2023-02-21T23:26:20.070Z,68.59
2023-02-21T23:28:54.077Z,68.53
2023-02-21T23:31:28.073Z,68.65
2023-02-21T23:34:01.936Z,68.69
2023-02-21T23:36:35.754Z,68.72
2023-02-21T23:39:10.183Z,68.81
2023-02-21T23:41:49.378Z,68.93
2023-02-21T23:44:23.373Z,69.11
2023-02-21T23:46:57.200Z,68.91
2023-02-21T23:49:31.137Z,68.85
2023-02-21T23:52:04.799Z,68.95
2023-02-21T23:54:38.979Z,68.90
2023-02-21T23:57:12.319Z,68.87
2023-02-21T23:59:46.019Z,68.86
